createdAt,value
2017-07-06T00:00:08.452Z,21.30
2017-07-06T00:02:36.883Z,21.30
2017-07-06T00:05:05.571Z,21.20
2017-07-06T00:07:34.210Z,21.20
2017-07-06T00:10:02.899Z,21.20
2017-07-06T00:12:31.329Z,21.10
2017-07-06T00:14:59.941Z,21.10
2017-07-06T00:17:29.136Z,21.00
2017-07-06T00:19:58.326Z,21.00
2017-07-06T00:22:27.539Z,21.00
2017-07-06T00:24:55.620Z,21.00
2017-07-06T00:27:24.049Z,21.00
2017-07-06T00:29:52.541Z,21.00
2017-07-06T00:32:20.960Z,20.90
2017-07-06T00:34:49.408Z,20.90
2017-07-06T00:37:18.821Z,20.90
2017-07-06T00:39:48.017Z,20.90
2017-07-06T00:42:17.209Z,20.80
2017-07-06T00:44:46.620Z,20.80
2017-07-06T00:47:15.038Z,20.80
2017-07-06T00:49:43.455Z,20.80
2017-07-06T00:52:12.464Z,20.80
2017-07-06T00:54:41.643Z,20.70
2017-07-06T00:57:10.841Z,20.70
2017-07-06T00:59:40.045Z,20.70
2017-07-06T01:02:09.237Z,20.60
2017-07-06T01:04:38.420Z,20.60
2017-07-06T01:07:06.866Z,20.60
2017-07-06T01:09:35.281Z,20.60
2017-07-06T01:12:03.683Z,20.60
2017-07-06T01:14:33.092Z,20.50
2017-07-06T01:17:01.172Z,20.50
2017-07-06T01:19:29.587Z,20.50
2017-07-06T01:21:58.224Z,20.50
2017-07-06T01:24:26.641Z,20.50
2017-07-06T01:26:55.059Z,20.40
2017-07-06T01:29:23.670Z,20.40
2017-07-06T01:31:52.080Z,20.30
2017-07-06T01:34:20.499Z,20.30
2017-07-06T01:36:49.120Z,20.30
2017-07-06T01:39:17.537Z,20.30
2017-07-06T01:41:45.957Z,20.40
2017-07-06T01:44:15.577Z,20.50
2017-07-06T01:46:44.017Z,20.50
2017-07-06T01:49:12.456Z,20.50
2017-07-06T01:51:41.218Z,20.50
2017-07-06T01:54:09.281Z,20.50
2017-07-06T01:56:37.769Z,20.40
2017-07-06T01:59:06.052Z,20.40
2017-07-06T02:01:34.473Z,20.50
2017-07-06T02:04:02.903Z,20.50
2017-07-06T02:06:31.547Z,20.60
2017-07-06T02:08:59.974Z,20.60
2017-07-06T02:11:28.392Z,20.60
2017-07-06T02:13:57.219Z,20.50
2017-07-06T02:16:26.411Z,20.50
2017-07-06T02:18:55.617Z,20.30
2017-07-06T02:21:25.045Z,20.20
2017-07-06T02:23:53.472Z,20.20
2017-07-06T02:26:21.887Z,20.20
2017-07-06T02:28:51.132Z,20.20
2017-07-06T02:31:19.213Z,20.20
2017-07-06T02:33:47.637Z,20.20
2017-07-06T02:36:16.967Z,20.30
2017-07-06T02:38:45.405Z,20.30
2017-07-06T02:41:13.816Z,20.20
2017-07-06T02:43:42.328Z,20.20
2017-07-06T02:46:10.739Z,20.10
2017-07-06T02:48:39.951Z,20.10
2017-07-06T02:51:09.169Z,20.10
2017-07-06T02:53:37.586Z,20.10
2017-07-06T02:56:05.992Z,20.10
2017-07-06T02:58:35.197Z,20.10
2017-07-06T03:01:04.368Z,20.10
2017-07-06T03:03:32.812Z,20.10
2017-07-06T03:06:01.472Z,20.00
2017-07-06T03:08:32.038Z,20.00
2017-07-06T03:11:00.579Z,19.90
2017-07-06T03:13:29.019Z,19.90
2017-07-06T03:15:57.433Z,19.90
2017-07-06T03:18:26.449Z,19.80
2017-07-06T03:20:54.864Z,19.80
2017-07-06T03:23:23.288Z,19.80
2017-07-06T03:25:52.700Z,19.70
2017-07-06T03:28:21.123Z,19.70
2017-07-06T03:30:49.531Z,19.70
2017-07-06T03:33:19.161Z,19.60
2017-07-06T03:35:47.246Z,19.60
2017-07-06T03:38:15.664Z,19.60
2017-07-06T03:40:44.295Z,19.60
2017-07-06T03:43:12.735Z,19.60
2017-07-06T03:45:41.159Z,19.60
2017-07-06T03:48:09.850Z,19.60
2017-07-06T03:50:38.331Z,19.60
2017-07-06T03:53:06.068Z,19.60
2017-07-06T03:55:35.561Z,19.60
2017-07-06T03:58:04.737Z,19.50
2017-07-06T04:00:33.155Z,19.50
2017-07-06T04:03:01.846Z,19.50
2017-07-06T04:05:30.327Z,19.50
2017-07-06T04:07:58.757Z,19.50
2017-07-06T04:10:27.377Z,19.50
2017-07-06T04:12:55.801Z,19.40
2017-07-06T04:15:24.223Z,19.40
2017-07-06T04:17:53.633Z,19.40
2017-07-06T04:20:22.816Z,19.40
2017-07-06T04:22:51.999Z,19.40
2017-07-06T04:25:20.629Z,19.40
2017-07-06T04:27:49.061Z,19.40
2017-07-06T04:30:16.783Z,19.40
2017-07-06T04:32:45.229Z,19.30
2017-07-06T04:35:13.897Z,19.30
2017-07-06T04:37:42.332Z,19.30
2017-07-06T04:40:11.112Z,19.30
2017-07-06T04:42:39.532Z,19.30
2017-07-06T04:45:07.957Z,19.30
2017-07-06T04:47:35.909Z,19.40
2017-07-06T04:50:04.325Z,19.40
2017-07-06T04:52:32.743Z,19.50
2017-07-06T04:55:01.351Z,19.50
2017-07-06T04:57:29.776Z,19.50
2017-07-06T04:59:58.190Z,19.50
2017-07-06T05:02:27.623Z,19.60
2017-07-06T05:04:56.041Z,19.50
2017-07-06T05:07:24.456Z,19.60
2017-07-06T05:09:53.688Z,19.70
2017-07-06T05:12:22.100Z,19.60
2017-07-06T05:14:50.528Z,19.70
2017-07-06T05:17:19.008Z,19.70
2017-07-06T05:19:47.463Z,19.80
2017-07-06T05:22:16.648Z,19.90
2017-07-06T05:24:45.257Z,19.90
2017-07-06T05:27:14.453Z,19.90
2017-07-06T05:29:43.640Z,19.90
2017-07-06T05:32:14.259Z,19.90
2017-07-06T05:34:43.472Z,19.90
2017-07-06T05:37:12.828Z,20.00
2017-07-06T05:39:41.270Z,20.00
2017-07-06T05:42:09.688Z,20.00
2017-07-06T05:44:37.445Z,20.10
2017-07-06T05:47:07.221Z,20.20
2017-07-06T05:49:35.629Z,20.10
2017-07-06T05:52:04.056Z,20.20
2017-07-06T05:54:32.660Z,20.20
2017-07-06T05:57:01.083Z,20.30
2017-07-06T05:59:29.515Z,20.40
2017-07-06T06:01:58.003Z,20.40
2017-07-06T06:04:26.416Z,20.50
2017-07-06T06:06:54.832Z,20.50
2017-07-06T06:09:24.045Z,20.60
2017-07-06T06:11:53.228Z,20.60
2017-07-06T06:14:22.408Z,20.70
2017-07-06T06:16:51.036Z,20.70
2017-07-06T06:19:19.703Z,20.80
2017-07-06T06:21:48.542Z,20.90
2017-07-06T06:24:16.980Z,20.90
2017-07-06T06:26:45.401Z,21.00
2017-07-06T06:29:13.823Z,21.00
2017-07-06T06:31:43.237Z,21.10
2017-07-06T06:34:12.424Z,21.20
2017-07-06T06:36:41.596Z,21.30
2017-07-06T06:39:10.528Z,21.30
2017-07-06T06:41:38.591Z,21.30
2017-07-06T06:44:07.775Z,21.40
2017-07-06T06:46:36.967Z,21.40
2017-07-06T06:49:06.163Z,21.40
2017-07-06T06:51:34.841Z,21.40
2017-07-06T06:54:03.456Z,21.50
2017-07-06T06:56:31.884Z,21.60
2017-07-06T06:59:00.296Z,21.60
2017-07-06T07:01:29.040Z,21.70
2017-07-06T07:03:57.455Z,21.80
2017-07-06T07:06:26.636Z,22.00
2017-07-06T07:08:55.965Z,21.90
2017-07-06T07:11:24.396Z,22.10
2017-07-06T07:13:52.833Z,22.10
2017-07-06T07:16:22.344Z,22.20
2017-07-06T07:18:50.758Z,22.20
2017-07-06T07:21:19.176Z,22.30
2017-07-06T07:23:48.569Z,22.40
2017-07-06T07:26:17.746Z,22.30
2017-07-06T07:28:46.179Z,22.30
2017-07-06T07:31:14.857Z,22.30
2017-07-06T07:33:43.282Z,22.40
2017-07-06T07:36:11.684Z,22.50
2017-07-06T07:38:40.304Z,22.50
2017-07-06T07:41:08.764Z,22.60
2017-07-06T07:43:36.765Z,22.70
2017-07-06T07:46:05.434Z,22.80
2017-07-06T07:48:33.165Z,22.90
2017-07-06T07:51:01.592Z,23.00
2017-07-06T07:53:30.359Z,23.10
2017-07-06T07:55:58.800Z,23.30
2017-07-06T07:58:27.211Z,23.40
2017-07-06T08:00:55.891Z,23.40
2017-07-06T08:03:24.306Z,23.60
2017-07-06T08:05:53.757Z,23.80
2017-07-06T08:08:23.085Z,24.00
2017-07-06T08:10:52.984Z,24.10
2017-07-06T08:13:21.395Z,24.10
2017-07-06T08:15:49.954Z,24.20
2017-07-06T08:18:18.368Z,24.30
2017-07-06T08:20:46.771Z,24.40
2017-07-06T08:23:15.393Z,24.50
2017-07-06T08:25:43.833Z,24.60
2017-07-06T08:28:12.517Z,24.60
2017-07-06T08:30:41.718Z,24.80
2017-07-06T08:33:10.411Z,24.70
2017-07-06T08:35:38.826Z,24.80
2017-07-06T08:38:07.262Z,24.90
2017-07-06T08:40:35.676Z,25.00
2017-07-06T08:43:04.092Z,25.00
2017-07-06T08:45:32.749Z,25.10
2017-07-06T08:48:01.177Z,25.10
2017-07-06T08:50:29.612Z,25.10
2017-07-06T08:52:58.688Z,25.10
2017-07-06T08:55:27.103Z,25.10
2017-07-06T08:57:55.519Z,25.20
2017-07-06T09:00:24.454Z,25.30
2017-07-06T09:02:52.869Z,25.50
2017-07-06T09:05:21.308Z,25.50
2017-07-06T09:07:49.985Z,25.50
2017-07-06T09:10:18.403Z,25.40
2017-07-06T09:12:48.100Z,25.40
2017-07-06T09:15:19.774Z,25.40
2017-07-06T09:17:48.698Z,25.50
2017-07-06T09:20:17.149Z,25.40
2017-07-06T09:22:45.580Z,25.30
2017-07-06T09:25:14.009Z,25.20
2017-07-06T09:27:42.629Z,25.20
2017-07-06T09:30:11.111Z,25.20
2017-07-06T09:32:39.541Z,25.30
2017-07-06T09:35:08.384Z,25.30
2017-07-06T09:37:36.799Z,25.30
2017-07-06T09:40:05.204Z,25.20
2017-07-06T09:42:33.781Z,25.20
2017-07-06T09:45:02.248Z,25.30
2017-07-06T09:47:30.667Z,25.40
2017-07-06T09:50:02.276Z,25.40
2017-07-06T09:52:31.177Z,25.40
2017-07-06T09:54:59.682Z,25.50
2017-07-06T09:57:29.011Z,25.60
2017-07-06T09:59:57.259Z,25.60
2017-07-06T10:02:26.470Z,25.70
2017-07-06T10:04:54.913Z,25.70
2017-07-06T10:07:23.389Z,25.60
2017-07-06T10:09:51.468Z,25.60
2017-07-06T10:12:19.777Z,25.70
2017-07-06T10:14:48.211Z,25.80
2017-07-06T10:17:16.715Z,25.80
2017-07-06T10:19:46.281Z,25.90
2017-07-06T10:22:14.698Z,25.90
2017-07-06T10:24:43.373Z,26.00
2017-07-06T10:27:11.993Z,26.00
2017-07-06T10:29:40.788Z,26.00
2017-07-06T10:32:09.204Z,25.90
2017-07-06T10:34:37.848Z,25.90
2017-07-06T10:37:06.265Z,25.90
2017-07-06T10:39:34.673Z,26.00
2017-07-06T10:42:04.305Z,26.00
2017-07-06T10:44:32.729Z,26.00
2017-07-06T10:47:01.162Z,26.00
2017-07-06T10:49:29.708Z,26.00
2017-07-06T10:51:58.137Z,26.10
2017-07-06T10:54:26.570Z,26.10
2017-07-06T10:56:55.112Z,26.10
2017-07-06T10:59:23.538Z,26.20
2017-07-06T11:01:51.953Z,26.20
2017-07-06T11:04:20.453Z,26.20
2017-07-06T11:06:49.898Z,26.10
2017-07-06T11:09:18.331Z,26.10
2017-07-06T11:11:46.994Z,26.20
2017-07-06T11:14:15.464Z,26.20
2017-07-06T11:16:44.139Z,26.20
2017-07-06T11:19:13.570Z,26.30
2017-07-06T11:21:41.982Z,26.30
2017-07-06T11:24:10.397Z,26.30
2017-07-06T11:26:38.968Z,26.30
2017-07-06T11:29:07.397Z,26.30
2017-07-06T11:31:35.830Z,26.30
2017-07-06T11:34:04.318Z,26.20
2017-07-06T11:36:33.526Z,26.10
2017-07-06T11:39:01.935Z,26.00
2017-07-06T11:41:30.597Z,26.00
2017-07-06T11:43:59.007Z,26.00
2017-07-06T11:46:27.092Z,26.00
2017-07-06T11:48:55.709Z,26.00
2017-07-06T11:51:24.330Z,26.10
2017-07-06T11:53:53.013Z,26.10
2017-07-06T11:56:21.455Z,26.10
2017-07-06T11:58:49.874Z,26.10
2017-07-06T12:01:18.439Z,26.00
2017-07-06T12:03:46.518Z,26.00
2017-07-06T12:06:15.138Z,26.00
2017-07-06T12:08:44.132Z,26.10
2017-07-06T12:11:12.579Z,26.10
2017-07-06T12:13:40.988Z,26.20
2017-07-06T12:16:09.548Z,26.20
2017-07-06T12:18:37.997Z,26.20
2017-07-06T12:21:06.607Z,26.20
2017-07-06T12:23:35.060Z,26.10
2017-07-06T12:26:03.735Z,26.20
2017-07-06T12:28:32.202Z,26.30
2017-07-06T12:31:00.659Z,26.30
2017-07-06T12:33:29.134Z,26.30
2017-07-06T12:35:57.734Z,26.30
2017-07-06T12:38:26.936Z,26.40
2017-07-06T12:40:55.497Z,26.40
2017-07-06T12:43:23.952Z,26.40
2017-07-06T12:45:52.372Z,26.50
2017-07-06T12:48:21.082Z,26.60
2017-07-06T12:50:49.739Z,26.60
2017-07-06T12:53:18.163Z,26.70
2017-07-06T12:55:48.297Z,26.80
2017-07-06T12:58:16.982Z,26.80
2017-07-06T13:00:45.583Z,26.80
2017-07-06T13:03:14.033Z,26.70
2017-07-06T13:05:42.118Z,26.70
2017-07-06T13:08:10.815Z,26.60
2017-07-06T13:10:39.229Z,26.60
2017-07-06T13:13:08.428Z,26.70
2017-07-06T13:15:36.860Z,26.70
2017-07-06T13:18:05.307Z,26.80
2017-07-06T13:20:33.745Z,26.80
2017-07-06T13:23:02.163Z,26.80
2017-07-06T13:25:30.635Z,26.80
2017-07-06T13:27:59.066Z,26.90
2017-07-06T13:30:27.772Z,26.90
2017-07-06T13:32:56.231Z,26.90
2017-07-06T13:35:24.645Z,26.90
2017-07-06T13:37:53.345Z,27.00
2017-07-06T13:40:21.777Z,27.20
2017-07-06T13:42:50.200Z,27.10
2017-07-06T13:45:17.986Z,27.00
2017-07-06T13:47:46.411Z,26.90
2017-07-06T13:50:14.313Z,26.90
2017-07-06T13:52:42.568Z,26.90
2017-07-06T13:55:11.004Z,26.90
2017-07-06T13:57:39.260Z,26.80
2017-07-06T14:00:07.725Z,26.90
2017-07-06T14:02:36.181Z,26.90
2017-07-06T14:05:04.628Z,26.80
2017-07-06T14:07:33.320Z,26.70
2017-07-06T14:10:01.770Z,26.60
2017-07-06T14:12:30.765Z,26.60
2017-07-06T14:14:59.288Z,26.50
2017-07-06T14:17:27.753Z,26.50
2017-07-06T14:19:56.339Z,26.50
2017-07-06T14:22:24.962Z,26.60
2017-07-06T14:24:53.566Z,26.60
2017-07-06T14:27:22.135Z,26.70
2017-07-06T14:29:50.556Z,26.70
2017-07-06T14:32:18.979Z,26.40
2017-07-06T14:34:47.502Z,25.90
2017-07-06T14:37:15.917Z,25.50
2017-07-06T14:39:45.415Z,24.60
2017-07-06T14:42:13.970Z,24.60
2017-07-06T14:44:42.408Z,24.30
2017-07-06T14:47:10.939Z,23.90
2017-07-06T14:49:39.627Z,23.60
2017-07-06T14:52:08.124Z,23.40
2017-07-06T14:54:36.767Z,23.30
2017-07-06T14:57:06.212Z,23.20
2017-07-06T14:59:35.029Z,23.20
2017-07-06T15:02:03.470Z,23.20
2017-07-06T15:04:31.915Z,23.20
2017-07-06T15:07:00.337Z,23.10
2017-07-06T15:09:28.837Z,23.10
2017-07-06T15:11:57.286Z,23.10
2017-07-06T15:14:25.700Z,23.00
2017-07-06T15:16:54.177Z,22.90
2017-07-06T15:19:22.807Z,22.90
2017-07-06T15:21:51.227Z,23.00
2017-07-06T15:24:20.438Z,23.00
2017-07-06T15:26:49.623Z,23.00
2017-07-06T15:29:18.796Z,23.00
2017-07-06T15:31:47.230Z,23.00
2017-07-06T15:34:15.657Z,23.00
2017-07-06T15:36:44.109Z,23.00
2017-07-06T15:39:12.542Z,22.90
2017-07-06T15:41:41.732Z,22.70
2017-07-06T15:44:10.941Z,22.60
2017-07-06T15:46:39.382Z,22.70
2017-07-06T15:49:07.825Z,22.50
2017-07-06T15:51:36.638Z,22.60
2017-07-06T15:54:05.059Z,22.60
2017-07-06T15:56:33.764Z,22.60
2017-07-06T15:59:02.193Z,22.50
2017-07-06T16:01:30.292Z,22.40
2017-07-06T16:03:58.968Z,22.30
2017-07-06T16:06:28.176Z,22.40
2017-07-06T16:08:57.389Z,22.40
2017-07-06T16:11:25.831Z,22.30
2017-07-06T16:13:54.534Z,22.40
2017-07-06T16:16:23.348Z,22.50
2017-07-06T16:18:51.881Z,22.60
2017-07-06T16:21:20.349Z,22.70
2017-07-06T16:23:48.761Z,22.70
2017-07-06T16:26:18.058Z,22.70
2017-07-06T16:28:47.715Z,22.70
2017-07-06T16:31:16.411Z,22.60
2017-07-06T16:33:44.853Z,22.80
2017-07-06T16:36:13.285Z,22.80
2017-07-06T16:38:41.726Z,22.90
2017-07-06T16:41:10.144Z,23.00
2017-07-06T16:43:38.569Z,23.00
2017-07-06T16:46:07.013Z,23.00
2017-07-06T16:48:35.438Z,23.10
2017-07-06T16:51:03.892Z,23.00
2017-07-06T16:53:33.068Z,23.00
2017-07-06T16:56:02.254Z,22.90
2017-07-06T16:58:30.691Z,22.90
2017-07-06T17:00:59.437Z,22.70
2017-07-06T17:03:28.787Z,22.70
2017-07-06T17:05:57.251Z,22.60
2017-07-06T17:08:25.906Z,22.70
2017-07-06T17:10:55.108Z,22.80
2017-07-06T17:13:24.284Z,22.80
2017-07-06T17:15:53.019Z,22.80
2017-07-06T17:18:21.702Z,22.90
2017-07-06T17:20:50.193Z,22.90
2017-07-06T17:23:18.635Z,23.10
2017-07-06T17:25:47.543Z,23.10
2017-07-06T17:28:16.453Z,23.10
2017-07-06T17:30:44.860Z,23.00
2017-07-06T17:33:13.308Z,22.90
2017-07-06T17:35:41.731Z,22.80
2017-07-06T17:38:11.049Z,22.90
2017-07-06T17:40:39.487Z,22.80
2017-07-06T17:43:08.089Z,22.80
2017-07-06T17:45:37.280Z,22.70
2017-07-06T17:48:05.712Z,22.70
2017-07-06T17:50:35.194Z,22.60
2017-07-06T17:53:03.625Z,22.60
2017-07-06T17:55:32.044Z,22.60
2017-07-06T17:58:00.477Z,22.70
2017-07-06T18:00:28.909Z,22.70
2017-07-06T18:02:57.591Z,22.70
2017-07-06T18:05:26.820Z,22.80
2017-07-06T18:07:55.256Z,22.80
2017-07-06T18:10:24.433Z,22.90
2017-07-06T18:12:52.868Z,22.80
2017-07-06T18:15:21.298Z,22.90
2017-07-06T18:17:51.091Z,22.70
2017-07-06T18:20:19.811Z,22.70
2017-07-06T18:22:48.232Z,22.70
2017-07-06T18:25:16.661Z,22.70
2017-07-06T18:27:45.341Z,22.80
2017-07-06T18:30:14.192Z,22.90
2017-07-06T18:32:42.613Z,22.80
2017-07-06T18:35:11.794Z,22.90
2017-07-06T18:37:41.735Z,23.10
2017-07-06T18:40:10.180Z,23.10
2017-07-06T18:42:39.105Z,23.10
2017-07-06T18:45:07.521Z,23.10
2017-07-06T18:47:35.967Z,23.20
2017-07-06T18:50:04.409Z,23.10
2017-07-06T18:52:32.818Z,23.10
2017-07-06T18:55:02.025Z,23.20
2017-07-06T18:57:30.457Z,23.10
2017-07-06T18:59:58.867Z,23.20
2017-07-06T19:02:28.077Z,23.20
2017-07-06T19:04:57.233Z,23.20
2017-07-06T19:07:25.677Z,23.20
2017-07-06T19:09:54.106Z,23.10
2017-07-06T19:12:23.300Z,23.00
2017-07-06T19:14:51.737Z,23.00
2017-07-06T19:17:20.429Z,23.00
2017-07-06T19:19:48.890Z,23.00
2017-07-06T19:22:17.388Z,23.00
2017-07-06T19:24:45.804Z,23.00
2017-07-06T19:27:14.252Z,23.00
2017-07-06T19:29:42.677Z,23.00
2017-07-06T19:32:11.897Z,23.00
2017-07-06T19:34:40.592Z,23.00
2017-07-06T19:37:09.285Z,23.00
2017-07-06T19:39:37.731Z,23.00
2017-07-06T19:42:06.149Z,23.00
2017-07-06T19:44:34.581Z,23.00
2017-07-06T19:47:03.794Z,22.90
2017-07-06T19:49:32.489Z,22.90
2017-07-06T19:52:00.929Z,22.90
2017-07-06T19:54:29.606Z,22.90
2017-07-06T19:56:58.030Z,22.90
2017-07-06T19:59:26.469Z,22.90
2017-07-06T20:01:54.906Z,22.80
2017-07-06T20:04:23.329Z,22.80
2017-07-06T20:06:52.513Z,22.80
2017-07-06T20:09:20.944Z,22.70
2017-07-06T20:11:49.380Z,22.70
2017-07-06T20:14:17.806Z,22.70
2017-07-06T20:16:46.300Z,22.60
2017-07-06T20:19:14.441Z,22.50
2017-07-06T20:21:43.841Z,22.40
2017-07-06T20:24:12.305Z,22.40
2017-07-06T20:26:41.499Z,22.40
2017-07-06T20:29:09.940Z,22.40
2017-07-06T20:31:38.372Z,22.40
2017-07-06T20:34:07.567Z,22.40
2017-07-06T20:36:36.006Z,22.40
2017-07-06T20:39:03.818Z,22.40
2017-07-06T20:41:32.272Z,22.40
2017-07-06T20:44:00.772Z,22.40
2017-07-06T20:46:29.208Z,22.40
2017-07-06T20:48:57.663Z,22.40
2017-07-06T20:51:26.105Z,22.40
2017-07-06T20:53:55.333Z,22.40
2017-07-06T20:56:23.771Z,22.40
2017-07-06T20:58:52.951Z,22.40
2017-07-06T21:01:21.413Z,22.40
2017-07-06T21:03:49.844Z,22.40
2017-07-06T21:06:18.352Z,22.40
2017-07-06T21:08:46.781Z,22.40
2017-07-06T21:11:15.302Z,22.40
2017-07-06T21:13:43.917Z,22.40
2017-07-06T21:16:12.333Z,22.50
2017-07-06T21:18:41.534Z,22.40
2017-07-06T21:21:10.728Z,22.40
2017-07-06T21:23:39.924Z,22.40
2017-07-06T21:26:09.124Z,22.40
2017-07-06T21:28:38.318Z,22.40
2017-07-06T21:31:07.524Z,22.40
2017-07-06T21:33:36.844Z,22.40
2017-07-06T21:36:05.263Z,22.40
2017-07-06T21:38:33.687Z,22.50
2017-07-06T21:41:02.095Z,22.50
2017-07-06T21:43:30.648Z,22.70
2017-07-06T21:45:59.076Z,22.50
2017-07-06T21:48:27.518Z,22.40
2017-07-06T21:50:55.963Z,22.30
2017-07-06T21:53:24.382Z,22.20
2017-07-06T21:55:52.851Z,22.10
2017-07-06T21:58:21.281Z,22.10
2017-07-06T22:00:49.706Z,22.10
2017-07-06T22:03:18.151Z,22.10
2017-07-06T22:05:47.361Z,21.90
2017-07-06T22:08:16.561Z,21.80
2017-07-06T22:10:45.773Z,21.80
2017-07-06T22:13:14.435Z,21.80
2017-07-06T22:15:42.864Z,21.70
2017-07-06T22:18:11.297Z,21.80
2017-07-06T22:20:40.512Z,21.80
2017-07-06T22:23:09.688Z,21.80
2017-07-06T22:25:38.882Z,21.80
2017-07-06T22:28:07.318Z,21.80
2017-07-06T22:30:35.733Z,21.80
2017-07-06T22:33:04.165Z,21.80
2017-07-06T22:35:32.589Z,21.70
2017-07-06T22:38:01.017Z,21.70
2017-07-06T22:40:29.461Z,21.70
2017-07-06T22:42:58.649Z,21.70
2017-07-06T22:45:27.098Z,21.70
2017-07-06T22:47:55.519Z,21.80
2017-07-06T22:50:24.710Z,21.70
2017-07-06T22:52:53.144Z,21.70
2017-07-06T22:55:21.581Z,21.60
2017-07-06T22:57:50.817Z,21.70
2017-07-06T23:00:19.229Z,21.70
2017-07-06T23:02:47.669Z,21.70
2017-07-06T23:05:16.129Z,21.60
2017-07-06T23:07:44.573Z,21.60
2017-07-06T23:10:13.105Z,21.60
2017-07-06T23:12:41.531Z,21.60
2017-07-06T23:15:10.029Z,21.60
2017-07-06T23:17:39.225Z,21.60
2017-07-06T23:20:08.425Z,21.60
2017-07-06T23:22:37.644Z,21.60
2017-07-06T23:25:06.119Z,21.60
2017-07-06T23:27:34.655Z,21.60
2017-07-06T23:30:03.340Z,21.60
2017-07-06T23:32:31.764Z,21.60
2017-07-06T23:35:00.207Z,21.60
2017-07-06T23:37:28.626Z,21.60
2017-07-06T23:39:57.057Z,21.60
2017-07-06T23:42:25.497Z,21.60
2017-07-06T23:44:53.933Z,21.50
2017-07-06T23:47:22.385Z,21.50
2017-07-06T23:49:50.804Z,21.40
2017-07-06T23:52:20.000Z,21.40
2017-07-06T23:54:49.204Z,21.40
2017-07-06T23:57:18.393Z,21.40
2017-07-06T23:59:47.644Z,21.30
